• Join FlightAware (Why Join?)
  • Login
  • US Flag 
06:16PM EDT


 

Airport Tracker/Info


-or-


 

Live Flight TrackerFlight Track Log ✈ AAY860 ✈ 21-Jun-2014 ✈ KTYS - KLEX

Flight Track Log - Related Links

Times and Time Zones

All times are in EDT time to prevent confusion due to time zone crossing. See the AAY860 flight status page for this flight to view local times or setup timezone preferences in your user account.

Time Position Orientation Groundspeed Altitude Reporting Facility
EDT Latitude Longitude Course Direction KTS MPH feet Rate Location/Type
09:02AM 35.7789 -84.0286 346° North 163 188 2,600  Level Atlanta Center
09:03AM 35.7369 -84.0797 225° Southwest 233 268 3,700 2,100 Climbing Atlanta Center
09:04AM 35.7703 -84.1333 307° West 235 270 6,900 2,700 Climbing Atlanta Center
09:05AM 35.8433 -84.1439 353° North 196 226 9,100 2,100 Climbing Atlanta Center
09:06AM 35.9228 -84.1542 354° North 234 269 11,100 1,740 Climbing Atlanta Center
09:07AM 36.1598 -83.9529 346° North  Level FlightAware Approximate
09:07AM 36.0186 -84.1672 354° North 290 334 12,600  Level Atlanta Center
09:09AM 36.2231 -84.1967 353° North 376 433 16,900 1,980 Climbing Indianapolis Center
09:10AM 36.3328 -84.2139 353° North 390 449 18,700 1,800 Climbing Indianapolis Center
09:11AM 36.4450 -84.2319 353° North 400 460 20,600 1,560 Climbing Indianapolis Center
09:12AM 36.5694 -84.2497 353° North 403 464 22,000 660 Climbing Indianapolis Center
09:13AM 36.6828 -84.2689 352° North 405 466 22,000 -60 Level Indianapolis Center
09:14AM 36.7956 -84.2867 353° North 405 466 21,900 -1,080 Descending Indianapolis Center
09:15AM 36.9064 -84.3036 353° North 405 466 19,900 -1,860 Descending Indianapolis Center
09:16AM 37.0119 -84.3211 352° North 390 449 18,100 -1,800 Descending Indianapolis Center
09:17AM 37.1283 -84.3392 353° North 367 422 16,200 -1,680 Descending Indianapolis Center
09:18AM 37.2219 -84.3533 353° North 346 398 14,700 -1,560 Descending Indianapolis Center
09:19AM 37.3139 -84.3683 353° North 337 388 13,100 -1,500 Descending Indianapolis Center
09:20AM 37.4017 -84.3831 352° North 323 372 11,600 -1,020 Descending Indianapolis Center
09:21AM 37.4872 -84.3953 354° North 313 360 11,000 -780 Descending Indianapolis Center
09:22AM 37.5503 -84.4492 326° Northwest 285 328 10,100 -1,260 Descending Indianapolis Center
09:23AM 37.6106 -84.5075 323° Northwest 276 318 8,500 -1,920 Descending Indianapolis Center
09:24AM 37.6772 -84.5742 322° Northwest 266 306 6,200 -2,220 Descending Indianapolis Center
09:25AM 37.7336 -84.6275 323° Northwest 257 296 4,000 -1,620 Descending Indianapolis Center
09:26AM 37.7864 -84.6794 322° Northwest 248 285 3,000 -720 Descending Indianapolis Center
09:27AM 37.8364 -84.7153 330° Northwest 224 258 2,600 -300 Descending Indianapolis Center
09:28AM 37.8894 -84.7386 341° North 209 241 2,500 -60 Descending Indianapolis Center
09:29AM 37.9403 -84.7153 20° North 201 231 2,500 -60 Level Indianapolis Center
09:30AM 37.9761 -84.6725 43° Northeast 189 217 2,400 -480 Descending Indianapolis Center
09:31AM 38.0061 -84.6392 41° Northeast 173 199 1,600 -780 Descending Indianapolis Center